createdAt,value
2018-03-02T00:00:51.077Z,44.16
2018-03-02T00:03:17.580Z,44.30
2018-03-02T00:05:43.940Z,44.37
2018-03-02T00:08:10.392Z,44.21
2018-03-02T00:10:37.015Z,44.45
2018-03-02T00:13:03.299Z,44.35
2018-03-02T00:15:29.547Z,44.40
2018-03-02T00:17:56.210Z,44.38
2018-03-02T00:20:22.811Z,44.71
2018-03-02T00:22:49.393Z,44.63
2018-03-02T00:25:15.907Z,44.76
2018-03-02T00:27:42.183Z,44.71
2018-03-02T00:30:08.903Z,44.76
2018-03-02T00:32:35.287Z,44.92
2018-03-02T00:35:01.826Z,44.84
2018-03-02T00:37:28.352Z,44.91
2018-03-02T00:39:54.816Z,45.08
2018-03-02T00:42:21.314Z,45.16
2018-03-02T00:44:47.728Z,45.17
2018-03-02T00:47:14.192Z,45.11
2018-03-02T00:49:40.453Z,45.14
2018-03-02T00:52:06.847Z,45.02
2018-03-02T00:54:33.327Z,45.01
2018-03-02T00:56:59.579Z,45.10
2018-03-02T00:59:25.840Z,45.20
2018-03-02T01:01:52.071Z,45.12
2018-03-02T01:04:19.697Z,45.06
2018-03-02T01:06:45.939Z,45.20
2018-03-02T01:09:12.462Z,45.13
2018-03-02T01:11:38.792Z,45.06
2018-03-02T01:14:05.321Z,45.07
2018-03-02T01:16:31.824Z,45.21
2018-03-02T01:18:58.099Z,45.05
2018-03-02T01:21:24.536Z,45.25
2018-03-02T01:23:50.776Z,45.32
2018-03-02T01:26:17.217Z,45.29
2018-03-02T01:28:43.477Z,45.36
2018-03-02T01:31:10.059Z,45.42
2018-03-02T01:33:36.494Z,45.35
2018-03-02T01:36:03.080Z,45.67
2018-03-02T01:38:29.625Z,45.62
2018-03-02T01:40:56.036Z,45.54
2018-03-02T01:43:22.441Z,45.66
2018-03-02T01:45:48.683Z,45.94
2018-03-02T01:48:15.471Z,45.91
2018-03-02T01:50:42.075Z,45.83
2018-03-02T01:53:09.544Z,45.75
2018-03-02T01:55:35.838Z,45.81
2018-03-02T01:58:02.246Z,45.74
2018-03-02T02:00:28.483Z,46.00
2018-03-02T02:02:54.703Z,45.95
2018-03-02T02:05:20.962Z,46.08
2018-03-02T02:07:47.201Z,46.14
2018-03-02T02:10:13.446Z,45.97
2018-03-02T02:12:39.661Z,46.10
2018-03-02T02:15:05.906Z,46.16
2018-03-02T02:17:32.141Z,45.95
2018-03-02T02:19:58.395Z,46.00
2018-03-02T02:22:24.616Z,46.20
2018-03-02T02:24:50.883Z,46.15
2018-03-02T02:27:17.120Z,46.09
2018-03-02T02:29:43.352Z,46.27
2018-03-02T02:32:09.608Z,46.31
2018-03-02T02:34:35.886Z,46.52
2018-03-02T02:37:02.158Z,46.39
2018-03-02T02:39:28.382Z,47.02
2018-03-02T02:41:54.635Z,46.92
2018-03-02T02:44:20.868Z,46.94
2018-03-02T02:46:47.164Z,47.15
2018-03-02T02:49:13.398Z,47.33
2018-03-02T02:51:39.607Z,47.27
2018-03-02T02:54:05.875Z,47.23
2018-03-02T02:56:32.111Z,47.16
2018-03-02T02:58:58.370Z,47.33
2018-03-02T03:01:24.634Z,47.48
2018-03-02T03:03:50.900Z,47.45
2018-03-02T03:06:17.123Z,47.85
2018-03-02T03:08:43.375Z,47.92
2018-03-02T03:11:09.586Z,47.83
2018-03-02T03:13:35.879Z,47.72
2018-03-02T03:16:02.099Z,47.62
2018-03-02T03:18:28.338Z,47.77
2018-03-02T03:20:54.583Z,48.04
2018-03-02T03:23:20.834Z,48.34
2018-03-02T03:25:47.072Z,48.49
2018-03-02T03:28:13.287Z,48.22
2018-03-02T03:30:39.593Z,48.37
2018-03-02T03:33:05.814Z,48.32
2018-03-02T03:35:32.051Z,48.50
2018-03-02T03:37:58.271Z,48.39
2018-03-02T03:40:24.525Z,48.49
2018-03-02T03:42:50.738Z,48.42
2018-03-02T03:45:17.039Z,48.52
2018-03-02T03:47:43.330Z,48.69
2018-03-02T03:50:09.551Z,48.82
2018-03-02T03:52:35.802Z,48.84
2018-03-02T03:55:02.013Z,48.79
2018-03-02T03:57:28.244Z,48.58
2018-03-02T03:59:54.483Z,48.81
2018-03-02T04:02:20.700Z,48.91
2018-03-02T04:04:46.911Z,48.92
2018-03-02T04:07:13.143Z,48.96
2018-03-02T04:09:39.440Z,49.13
2018-03-02T04:12:05.716Z,49.25
2018-03-02T04:14:31.940Z,49.02
2018-03-02T04:16:58.167Z,49.09
2018-03-02T04:19:24.407Z,48.97
2018-03-02T04:21:50.632Z,49.15
2018-03-02T04:24:16.911Z,49.19
2018-03-02T04:26:43.159Z,49.15
2018-03-02T04:29:09.381Z,48.95
2018-03-02T04:31:35.647Z,49.02
2018-03-02T04:34:01.870Z,49.07
2018-03-02T04:36:28.118Z,49.12
2018-03-02T04:38:54.331Z,49.11
2018-03-02T04:41:20.562Z,49.18
2018-03-02T04:43:46.798Z,49.45
2018-03-02T04:46:13.083Z,49.58
2018-03-02T04:48:39.331Z,49.51
2018-03-02T04:51:05.564Z,49.58
2018-03-02T04:53:31.787Z,49.62
2018-03-02T04:55:58.118Z,49.47
2018-03-02T04:58:24.351Z,49.58
2018-03-02T05:00:50.607Z,49.63
2018-03-02T05:03:16.847Z,49.74
2018-03-02T05:05:43.078Z,49.80
2018-03-02T05:08:09.348Z,49.87
2018-03-02T05:10:35.595Z,50.04
2018-03-02T05:13:01.855Z,50.04
2018-03-02T05:15:28.088Z,50.05
2018-03-02T05:17:54.327Z,50.02
2018-03-02T05:20:20.583Z,50.15
2018-03-02T05:22:46.848Z,50.32
2018-03-02T05:25:13.120Z,50.49
2018-03-02T05:27:39.371Z,50.41
2018-03-02T05:30:05.592Z,50.41
2018-03-02T05:32:31.814Z,50.47
2018-03-02T05:34:58.115Z,50.62
2018-03-02T05:37:24.335Z,50.66
2018-03-02T05:39:50.606Z,51.04
2018-03-02T05:42:16.831Z,51.04
2018-03-02T05:44:43.047Z,51.65
2018-03-02T05:47:09.331Z,52.11
2018-03-02T05:49:35.563Z,51.20
2018-03-02T05:52:01.819Z,50.93
2018-03-02T05:54:28.044Z,50.99
2018-03-02T05:56:54.274Z,50.95
2018-03-02T05:59:20.527Z,51.31
2018-03-02T06:01:46.813Z,51.40
2018-03-02T06:04:13.055Z,51.34
2018-03-02T06:06:39.263Z,51.24
2018-03-02T06:09:05.475Z,51.07
2018-03-02T06:11:31.730Z,50.81
2018-03-02T06:13:57.939Z,50.88
2018-03-02T06:16:24.183Z,50.85
2018-03-02T06:18:50.438Z,50.83
2018-03-02T06:21:16.712Z,50.18
2018-03-02T06:23:42.947Z,50.05
2018-03-02T06:26:09.163Z,50.06
2018-03-02T06:28:35.402Z,49.77
2018-03-02T06:31:01.626Z,49.28
2018-03-02T06:33:27.842Z,49.73
2018-03-02T06:35:54.075Z,49.15
2018-03-02T06:38:20.294Z,49.28
2018-03-02T06:40:46.551Z,48.91
2018-03-02T06:43:12.812Z,48.73
2018-03-02T06:45:39.031Z,49.08
2018-03-02T06:48:05.267Z,49.27
2018-03-02T06:50:31.487Z,48.78
2018-03-02T06:52:57.757Z,48.82
2018-03-02T06:55:23.977Z,48.59
2018-03-02T06:57:50.196Z,48.45
2018-03-02T07:00:16.434Z,48.40
2018-03-02T07:02:42.653Z,48.15
2018-03-02T07:05:08.987Z,47.85
2018-03-02T07:07:35.203Z,47.44
2018-03-02T07:10:01.422Z,47.08
2018-03-02T07:12:27.656Z,46.77
2018-03-02T07:14:53.885Z,46.59
2018-03-02T07:17:20.139Z,46.27
2018-03-02T07:19:46.362Z,45.28
2018-03-02T07:22:12.590Z,44.91
2018-03-02T07:24:38.820Z,44.45
2018-03-02T07:27:05.039Z,44.26
2018-03-02T07:29:31.286Z,42.89
2018-03-02T07:31:57.498Z,41.82
2018-03-02T07:34:23.707Z,41.32
2018-03-02T07:36:49.958Z,40.75
2018-03-02T07:39:16.190Z,40.21
2018-03-02T07:41:42.446Z,40.84
2018-03-02T07:44:08.750Z,41.29
2018-03-02T07:46:34.976Z,41.40
2018-03-02T07:49:01.203Z,42.17
2018-03-02T07:51:27.414Z,42.20
2018-03-02T07:53:53.683Z,41.26
2018-03-02T07:56:19.952Z,38.99
2018-03-02T07:58:46.176Z,37.41
2018-03-02T08:01:12.421Z,37.52
2018-03-02T08:03:38.657Z,37.92
2018-03-02T08:06:04.899Z,38.52
2018-03-02T08:08:31.229Z,38.52
2018-03-02T08:10:57.462Z,37.18
2018-03-02T08:13:23.720Z,35.98
2018-03-02T08:15:49.952Z,34.49
2018-03-02T08:18:16.211Z,33.20
2018-03-02T08:20:42.436Z,31.38
2018-03-02T08:23:08.655Z,30.71
2018-03-02T08:25:34.893Z,29.97
2018-03-02T08:28:01.111Z,28.93
2018-03-02T08:30:27.440Z,28.34
2018-03-02T08:32:53.747Z,27.29
2018-03-02T08:35:19.963Z,26.87
2018-03-02T08:37:46.202Z,25.33
2018-03-02T08:40:12.462Z,24.56
2018-03-02T08:42:38.734Z,24.37
2018-03-02T08:45:04.947Z,23.85
2018-03-02T08:47:31.194Z,23.33
2018-03-02T08:49:57.511Z,22.72
2018-03-02T08:52:23.747Z,21.96
2018-03-02T08:54:50.063Z,21.67
2018-03-02T08:57:16.274Z,21.54
2018-03-02T08:59:42.525Z,20.96
2018-03-02T09:02:08.767Z,20.65
2018-03-02T09:04:34.983Z,20.77
2018-03-02T09:07:01.287Z,20.50
2018-03-02T09:09:27.499Z,20.79
2018-03-02T09:11:53.710Z,20.81
2018-03-02T09:14:19.978Z,20.89
2018-03-02T09:16:46.195Z,20.74
2018-03-02T09:19:12.430Z,20.98
2018-03-02T09:21:38.671Z,21.68
2018-03-02T09:24:04.883Z,22.24
2018-03-02T09:26:31.111Z,23.27
2018-03-02T09:28:57.359Z,23.75
2018-03-02T09:31:23.582Z,24.52
2018-03-02T09:33:49.795Z,25.12
2018-03-02T09:36:16.021Z,25.45
2018-03-02T09:38:42.282Z,24.28
2018-03-02T09:41:08.523Z,22.89
2018-03-02T09:43:34.753Z,22.09
2018-03-02T09:46:01.099Z,22.07
2018-03-02T09:48:27.340Z,22.17
2018-03-02T09:50:53.571Z,23.25
2018-03-02T09:53:19.803Z,24.00
2018-03-02T09:55:46.019Z,24.26
2018-03-02T09:58:12.246Z,24.37
2018-03-02T10:00:38.519Z,24.91
2018-03-02T10:03:04.743Z,24.93
2018-03-02T10:05:30.979Z,24.62
2018-03-02T10:07:57.186Z,24.76
2018-03-02T10:10:23.399Z,24.56
2018-03-02T10:12:49.639Z,24.65
2018-03-02T10:15:15.838Z,25.43
2018-03-02T10:17:42.083Z,25.55
2018-03-02T10:20:08.307Z,25.91
2018-03-02T10:22:34.525Z,25.90
2018-03-02T10:25:00.755Z,25.71
2018-03-02T10:27:26.963Z,25.67
2018-03-02T10:29:53.203Z,25.57
2018-03-02T10:32:19.423Z,26.92
2018-03-02T10:34:45.631Z,27.35
2018-03-02T10:37:11.874Z,26.62
2018-03-02T10:42:11.102Z,24.22
2018-03-02T10:44:37.313Z,23.13
2018-03-02T10:47:03.539Z,22.11
2018-03-02T10:49:29.783Z,21.53
2018-03-02T10:51:55.984Z,21.67
2018-03-02T10:54:22.220Z,21.65
2018-03-02T10:56:48.447Z,21.48
2018-03-02T10:59:14.658Z,21.24
2018-03-02T11:01:46.905Z,21.16
2018-03-02T11:04:17.203Z,20.83
2018-03-02T11:06:43.435Z,20.42
2018-03-02T11:09:09.648Z,20.72
2018-03-02T11:11:35.899Z,20.45
2018-03-02T11:14:02.108Z,20.81
2018-03-02T11:16:28.352Z,20.81
2018-03-02T11:18:54.595Z,19.92
2018-03-02T11:21:20.806Z,18.82
2018-03-02T11:23:47.107Z,18.57
2018-03-02T11:26:13.353Z,18.62
2018-03-02T11:28:39.575Z,17.66
2018-03-02T11:31:05.808Z,17.53
2018-03-02T11:33:32.036Z,17.05
2018-03-02T11:35:58.288Z,17.37
2018-03-02T11:38:24.511Z,18.61
2018-03-02T11:40:50.748Z,19.09
2018-03-02T11:43:16.986Z,18.91
2018-03-02T11:45:43.213Z,19.82
2018-03-02T11:48:09.472Z,19.68
2018-03-02T11:50:35.691Z,20.29
2018-03-02T11:53:01.911Z,18.48
2018-03-02T11:55:28.171Z,17.04
2018-03-02T11:57:54.379Z,16.41
2018-03-02T12:00:20.639Z,16.32
2018-03-02T12:02:46.852Z,15.83
2018-03-02T12:05:13.059Z,15.84
2018-03-02T12:07:39.283Z,14.61
2018-03-02T12:10:05.511Z,13.75
2018-03-02T12:12:31.752Z,13.82
2018-03-02T12:14:57.950Z,13.49
2018-03-02T12:17:24.155Z,13.08
2018-03-02T12:19:50.389Z,12.74
2018-03-02T12:22:16.595Z,12.74
2018-03-02T12:24:42.843Z,12.57
2018-03-02T12:27:09.147Z,12.21
2018-03-02T12:29:35.355Z,11.99
2018-03-02T12:32:01.614Z,11.52
2018-03-02T12:34:27.831Z,11.00
2018-03-02T12:36:54.079Z,10.78
2018-03-02T12:39:20.317Z,10.48
2018-03-02T12:41:46.539Z,10.52
2018-03-02T12:44:12.782Z,10.36
2018-03-02T12:46:38.999Z,10.00
2018-03-02T12:49:05.251Z,9.78
2018-03-02T12:51:31.475Z,10.69
2018-03-02T12:53:57.701Z,11.25
2018-03-02T12:56:23.956Z,10.81
2018-03-02T12:58:50.211Z,10.36
2018-03-02T13:01:16.454Z,10.55
2018-03-02T13:03:42.691Z,10.81
2018-03-02T13:06:08.904Z,10.29
2018-03-02T13:08:35.167Z,9.98
2018-03-02T13:11:01.408Z,9.58
2018-03-02T13:13:27.656Z,9.29
2018-03-02T13:15:53.874Z,9.25
2018-03-02T13:18:32.511Z,9.26
2018-03-02T13:20:58.731Z,9.77
2018-03-02T13:23:24.956Z,9.86
2018-03-02T13:25:51.212Z,9.49
2018-03-02T13:41:55.599Z,14.26
2018-03-02T13:44:21.850Z,14.41
2018-03-02T13:46:48.119Z,13.96
2018-03-02T14:03:06.121Z,12.19
2018-03-02T14:05:32.367Z,12.22
2018-03-02T14:07:58.659Z,12.12
2018-03-02T14:10:24.900Z,12.60
2018-03-02T14:12:51.108Z,12.80
2018-03-02T14:15:17.314Z,12.43
2018-03-02T14:17:43.544Z,12.55
2018-03-02T14:20:09.836Z,12.62
2018-03-02T14:22:36.093Z,13.01
2018-03-02T14:25:02.337Z,13.12
2018-03-02T14:27:28.552Z,13.25
2018-03-02T14:29:54.779Z,13.71
2018-03-02T14:32:20.992Z,14.71
2018-03-02T14:34:47.231Z,15.22
2018-03-02T14:37:13.465Z,15.51
2018-03-02T14:39:39.702Z,15.89
2018-03-02T14:42:05.951Z,16.37
2018-03-02T14:44:32.168Z,17.31
2018-03-02T14:46:58.398Z,17.47
2018-03-02T14:49:24.605Z,17.63
2018-03-02T14:51:50.807Z,18.03
2018-03-02T14:54:17.033Z,18.68
2018-03-02T14:56:43.255Z,19.37
2018-03-02T14:59:09.531Z,19.78
2018-03-02T15:01:35.776Z,19.61
2018-03-02T15:04:01.996Z,19.44
2018-03-02T15:06:28.283Z,19.62
2018-03-02T15:08:54.516Z,19.52
2018-03-02T15:11:20.765Z,19.15
2018-03-02T15:13:47.024Z,19.02
2018-03-02T15:16:13.232Z,19.04
2018-03-02T15:18:39.511Z,19.17
2018-03-02T15:21:05.755Z,20.46
2018-03-02T15:23:32.059Z,21.10
2018-03-02T15:25:58.283Z,21.02
2018-03-02T15:28:24.519Z,20.46
2018-03-02T15:30:50.794Z,20.35
2018-03-02T15:33:17.016Z,20.83
2018-03-02T15:35:43.262Z,21.99
2018-03-02T15:38:09.479Z,22.99
2018-03-02T15:40:35.690Z,24.15
2018-03-02T15:43:02.034Z,24.93
2018-03-02T15:45:28.235Z,25.65
2018-03-02T15:47:54.491Z,26.32
2018-03-02T15:50:20.750Z,26.92
2018-03-02T15:52:46.955Z,27.50
2018-03-02T15:55:13.211Z,27.93
2018-03-02T15:57:39.451Z,28.26
2018-03-02T16:00:05.672Z,28.58
2018-03-02T16:02:32.130Z,28.97
2018-03-02T16:04:58.375Z,29.32
2018-03-02T16:07:24.599Z,29.67
2018-03-02T16:09:50.846Z,29.87
2018-03-02T16:12:17.128Z,30.19
2018-03-02T16:14:43.339Z,30.37
2018-03-02T16:17:09.571Z,30.47
2018-03-02T16:19:35.905Z,30.77
2018-03-02T16:22:02.143Z,30.97
2018-03-02T16:24:28.444Z,31.12
2018-03-02T16:26:55.972Z,31.06
2018-03-02T16:29:22.215Z,31.13
2018-03-02T16:31:48.470Z,31.29
2018-03-02T16:34:14.711Z,31.53
2018-03-02T16:36:40.978Z,31.88
2018-03-02T16:39:07.211Z,31.42
2018-03-02T16:41:33.456Z,31.66
2018-03-02T16:43:59.673Z,31.77
2018-03-02T16:46:26.039Z,31.73
2018-03-02T16:48:52.266Z,31.51
2018-03-02T16:51:18.517Z,31.56
2018-03-02T16:53:44.763Z,31.59
2018-03-02T16:56:11.050Z,31.37
2018-03-02T16:58:37.386Z,31.62
2018-03-02T17:01:03.656Z,31.66
2018-03-02T17:03:29.895Z,31.87
2018-03-02T17:05:56.399Z,31.97
2018-03-02T17:08:22.610Z,31.91
2018-03-02T17:10:48.894Z,32.07
2018-03-02T17:13:15.120Z,31.96
2018-03-02T17:15:41.351Z,32.00
2018-03-02T17:18:07.607Z,31.97
2018-03-02T17:20:33.838Z,32.20
2018-03-02T17:23:00.101Z,32.26
2018-03-02T17:25:26.323Z,32.32
2018-03-02T17:27:52.667Z,32.29
2018-03-02T17:30:18.942Z,32.53
2018-03-02T17:32:45.183Z,32.64
2018-03-02T17:35:11.455Z,32.76
2018-03-02T17:37:37.667Z,32.69
2018-03-02T17:40:04.271Z,32.73
2018-03-02T17:42:30.552Z,32.54
2018-03-02T17:44:56.875Z,32.69
2018-03-02T17:47:23.727Z,33.05
2018-03-02T17:49:49.958Z,32.98
2018-03-02T17:52:16.183Z,33.15
2018-03-02T17:54:42.415Z,33.21
2018-03-02T17:57:08.699Z,33.19
2018-03-02T17:59:34.986Z,33.10
2018-03-02T18:02:01.242Z,33.32
2018-03-02T18:04:27.451Z,33.38
2018-03-02T18:06:53.687Z,33.38
2018-03-02T18:09:19.907Z,33.33
2018-03-02T18:11:46.191Z,33.44
2018-03-02T18:14:12.431Z,33.41
2018-03-02T18:16:38.742Z,33.45
2018-03-02T18:19:04.997Z,33.43
2018-03-02T18:21:31.241Z,33.47
2018-03-02T18:23:57.848Z,33.56
2018-03-02T18:26:24.306Z,33.74
2018-03-02T18:28:50.539Z,33.80
2018-03-02T18:31:16.895Z,33.94
2018-03-02T18:33:43.111Z,34.05
2018-03-02T18:36:09.503Z,34.54
2018-03-02T18:38:35.760Z,34.86
2018-03-02T18:41:02.011Z,34.80
2018-03-02T18:43:28.429Z,34.84
2018-03-02T18:45:54.672Z,34.91
2018-03-02T18:48:20.996Z,35.19
2018-03-02T18:50:47.230Z,35.25
2018-03-02T18:53:13.721Z,35.34
2018-03-02T18:55:39.967Z,35.40
2018-03-02T18:58:06.335Z,35.18
2018-03-02T19:00:32.583Z,35.05
2018-03-02T19:02:58.851Z,35.23
2018-03-02T19:05:25.068Z,35.66
2018-03-02T19:07:51.318Z,35.74
2018-03-02T19:10:17.547Z,35.57
2018-03-02T19:12:43.907Z,35.60
2018-03-02T19:15:10.239Z,35.35
2018-03-02T19:17:36.668Z,35.44
2018-03-02T19:20:03.084Z,35.36
2018-03-02T19:22:29.395Z,35.32
2018-03-02T19:24:55.655Z,35.20
2018-03-02T19:27:22.225Z,35.00
2018-03-02T19:29:48.424Z,34.85
2018-03-02T19:32:14.890Z,34.71
2018-03-02T19:34:41.162Z,34.99
2018-03-02T19:37:07.499Z,35.15
2018-03-02T19:39:33.894Z,34.98
2018-03-02T19:42:00.158Z,35.08
2018-03-02T19:44:26.602Z,34.93
2018-03-02T19:46:52.995Z,34.81
2018-03-02T19:49:19.478Z,34.87
2018-03-02T19:51:45.766Z,35.13
2018-03-02T19:54:12.011Z,34.96
2018-03-02T19:56:38.310Z,35.22
2018-03-02T19:59:04.563Z,34.92
2018-03-02T20:01:30.794Z,35.37
2018-03-02T20:03:57.196Z,35.50
2018-03-02T20:06:23.577Z,35.69
2018-03-02T20:08:49.906Z,36.21
2018-03-02T20:11:16.453Z,36.64
2018-03-02T20:13:42.687Z,36.79
2018-03-02T20:16:08.999Z,37.10
2018-03-02T20:18:35.219Z,36.88
2018-03-02T20:21:01.430Z,36.96
2018-03-02T20:23:27.675Z,36.79
2018-03-02T20:25:53.894Z,37.11
2018-03-02T20:28:20.134Z,37.12
2018-03-02T20:30:46.359Z,36.89
2018-03-02T20:33:12.584Z,36.66
2018-03-02T20:35:38.828Z,36.69
2018-03-02T20:38:05.043Z,36.70
2018-03-02T20:40:31.295Z,36.76
2018-03-02T20:42:57.520Z,36.98
2018-03-02T20:45:23.730Z,37.10
2018-03-02T20:47:49.978Z,36.92
2018-03-02T20:50:16.253Z,36.76
2018-03-02T20:52:42.594Z,36.84
2018-03-02T20:55:08.823Z,36.82
2018-03-02T20:57:35.044Z,36.70
2018-03-02T21:00:01.299Z,36.75
2018-03-02T21:02:27.520Z,36.86
2018-03-02T21:04:53.779Z,36.61
2018-03-02T21:07:20.000Z,36.68
2018-03-02T21:09:46.406Z,36.67
2018-03-02T21:12:12.671Z,36.65
2018-03-02T21:14:39.004Z,36.60
2018-03-02T21:17:05.303Z,36.48
2018-03-02T21:19:31.556Z,36.46
2018-03-02T21:21:57.779Z,36.39
2018-03-02T21:24:24.019Z,36.25
2018-03-02T21:26:50.262Z,36.18
2018-03-02T21:29:16.515Z,36.54
2018-03-02T21:31:42.792Z,36.45
2018-03-02T21:34:09.026Z,36.42
2018-03-02T21:36:35.273Z,36.34
2018-03-02T21:39:01.508Z,36.36
2018-03-02T21:41:27.763Z,36.54
2018-03-02T21:43:53.990Z,36.15
2018-03-02T21:46:20.216Z,36.06
2018-03-02T21:48:46.471Z,36.29
2018-03-02T21:51:12.708Z,36.49
2018-03-02T21:53:38.979Z,36.48
2018-03-02T21:56:05.211Z,36.28
2018-03-02T21:58:31.432Z,36.12
2018-03-02T22:00:57.703Z,36.38
2018-03-02T22:03:23.939Z,36.51
2018-03-02T22:05:50.194Z,36.40
2018-03-02T22:08:16.733Z,36.57
2018-03-02T22:10:43.101Z,36.38
2018-03-02T22:13:09.427Z,36.33
2018-03-02T22:15:35.663Z,36.46
2018-03-02T22:18:01.919Z,36.41
2018-03-02T22:20:28.131Z,36.35
2018-03-02T22:22:54.363Z,36.62
2018-03-02T22:25:20.599Z,36.41
2018-03-02T22:27:46.915Z,36.35
2018-03-02T22:30:13.168Z,36.54
2018-03-02T22:32:39.416Z,36.63
2018-03-02T22:35:05.643Z,36.79
2018-03-02T22:37:32.642Z,36.98
2018-03-02T22:39:58.859Z,36.80
2018-03-02T22:42:25.075Z,36.77
2018-03-02T22:44:51.344Z,36.63
2018-03-02T22:47:17.562Z,36.51
2018-03-02T22:49:43.788Z,36.86
2018-03-02T22:52:10.323Z,36.69
2018-03-02T22:54:36.554Z,36.59
2018-03-02T22:57:02.774Z,36.88
2018-03-02T22:59:29.388Z,36.78
2018-03-02T23:01:56.259Z,36.77
2018-03-02T23:04:22.607Z,36.85
2018-03-02T23:06:48.827Z,37.01
2018-03-02T23:09:15.034Z,37.05
2018-03-02T23:11:41.281Z,36.96
2018-03-02T23:14:07.527Z,36.91
2018-03-02T23:16:33.767Z,36.95
2018-03-02T23:18:59.982Z,36.95
2018-03-02T23:21:26.226Z,36.93
2018-03-02T23:23:52.449Z,36.68
2018-03-02T23:26:18.655Z,36.73
2018-03-02T23:28:44.895Z,36.74
2018-03-02T23:31:11.111Z,36.73
2018-03-02T23:33:37.318Z,36.89
2018-03-02T23:36:03.556Z,36.76
2018-03-02T23:38:29.803Z,37.18
2018-03-02T23:40:56.035Z,37.20
2018-03-02T23:43:22.241Z,37.32
2018-03-02T23:45:48.478Z,37.31
2018-03-02T23:48:14.702Z,37.50
2018-03-02T23:50:40.907Z,37.60
2018-03-02T23:53:07.146Z,37.52
2018-03-02T23:55:33.360Z,37.69
2018-03-02T23:57:59.578Z,37.71
